Time;durP1;ratioP1;P1;durP2;ratioP2;P2;SDS_P1;SDS_P2;PMS_P1;PMS_P2;Temp;Humidity;BMP_temperature;BMP_pressure;BME280_temperature;BME280_humidity;BME280_pressure;Samples;Min_cycle;Max_cycle;Signal;HPM_P1;HPM_P2
2020/12/08 00:00:23;;;;;;;6.65;5.82;;;8.30;69.70;;;;;;4985054;28;20035;-72
2020/12/08 00:02:50;;;;;;;6.47;5.40;;;8.20;69.60;;;;;;4983079;28;20191;-72
2020/12/08 00:05:17;;;;;;;6.35;5.30;;;8.30;69.70;;;;;;4983533;28;20041;-72
2020/12/08 00:07:42;;;;;;;6.82;5.50;;;8.30;69.60;;;;;;4988032;28;20125;-72
2020/12/08 00:10:08;;;;;;;6.43;5.28;;;8.20;69.50;;;;;;4983917;28;20161;-72
2020/12/08 00:12:34;;;;;;;6.63;5.43;;;8.10;69.40;;;;;;4979631;28;20053;-71
2020/12/08 00:14:59;;;;;;;5.22;4.53;;;8.20;69.40;;;;;;4984174;28;20030;-72
2020/12/08 00:17:25;;;;;;;5.78;4.93;;;8.10;69.40;;;;;;4976134;28;20035;-71
2020/12/08 00:19:50;;;;;;;6.00;4.93;;;8.00;69.40;;;;;;4984469;28;20061;-72
2020/12/08 00:22:16;;;;;;;5.10;4.25;;;8.00;69.50;;;;;;4987111;28;20031;-71
2020/12/08 00:24:42;;;;;;;5.78;4.75;;;8.00;69.50;;;;;;4985684;28;20034;-71
2020/12/08 00:27:08;;;;;;;5.78;4.78;;;7.90;69.50;;;;;;4983980;28;20113;-71
2020/12/08 00:29:35;;;;;;;6.15;5.30;;;7.90;69.40;;;;;;4983863;28;20097;-71
2020/12/08 00:32:01;;;;;;;6.25;5.30;;;7.90;69.40;;;;;;4981986;28;20026;-71
2020/12/08 00:34:27;;;;;;;5.82;5.03;;;7.90;69.40;;;;;;4981713;28;20041;-72
2020/12/08 00:36:52;;;;;;;5.63;4.95;;;7.80;69.30;;;;;;4969022;28;20037;-72
2020/12/08 00:39:17;;;;;;;5.93;5.00;;;7.70;69.30;;;;;;4986460;28;20038;-72
2020/12/08 00:41:46;;;;;;;5.57;4.78;;;7.70;69.30;;;;;;4963607;28;20030;-71
2020/12/08 00:44:12;;;;;;;6.43;4.53;;;7.70;69.40;;;;;;4980443;28;20041;-72
2020/12/08 00:46:37;;;;;;;5.38;4.65;;;7.70;69.40;;;;;;4980499;28;20043;-71
2020/12/08 00:49:03;;;;;;;5.82;4.78;;;7.60;69.50;;;;;;4980248;28;20037;-72
2020/12/08 00:51:28;;;;;;;5.68;4.43;;;7.60;69.60;;;;;;4988347;28;20112;-71
2020/12/08 00:53:53;;;;;;;5.60;4.55;;;7.60;69.70;;;;;;4989810;28;20141;-73
2020/12/08 00:56:19;;;;;;;5.30;4.43;;;7.50;69.70;;;;;;4980185;28;20151;-72
2020/12/08 00:58:44;;;;;;;5.18;4.32;;;7.50;69.80;;;;;;4982343;28;20034;-71
2020/12/08 01:01:10;;;;;;;6.25;4.65;;;7.50;69.90;;;;;;4984747;28;20085;-72
2020/12/08 01:03:36;;;;;;;5.10;4.40;;;7.50;69.90;;;;;;4977027;28;20493;-72
2020/12/08 01:06:02;;;;;;;4.70;4.10;;;7.50;69.90;;;;;;4984772;28;20029;-72
2020/12/08 01:08:28;;;;;;;4.65;4.03;;;7.50;70.00;;;;;;4984033;28;20038;-72
2020/12/08 01:10:54;;;;;;;4.57;3.70;;;7.50;70.00;;;;;;4987838;28;20502;-71
2020/12/08 01:13:20;;;;;;;5.20;4.07;;;7.50;70.00;;;;;;4971752;28;20039;-72
2020/12/08 01:15:47;;;;;;;4.18;3.70;;;7.50;70.00;;;;;;4985234;28;20038;-71
2020/12/08 01:18:13;;;;;;;4.93;4.15;;;7.50;70.00;;;;;;4982388;28;20057;-72
2020/12/08 01:20:38;;;;;;;5.30;4.10;;;7.50;69.90;;;;;;4981644;28;20529;-72
2020/12/08 01:23:04;;;;;;;4.45;3.70;;;7.50;69.80;;;;;;4984555;28;20034;-72
2020/12/08 01:25:31;;;;;;;4.03;3.60;;;7.50;69.70;;;;;;4984633;28;20031;-72
2020/12/08 01:27:57;;;;;;;3.83;3.25;;;7.50;69.70;;;;;;4983139;28;20030;-71
2020/12/08 01:30:22;;;;;;;4.50;4.00;;;7.40;69.60;;;;;;4984615;28;20035;-71
2020/12/08 01:32:48;;;;;;;4.25;3.63;;;7.40;69.60;;;;;;4981831;28;20093;-71
2020/12/08 01:35:13;;;;;;;4.60;3.80;;;7.40;69.60;;;;;;4981921;28;20034;-71
2020/12/08 01:37:39;;;;;;;5.45;3.80;;;7.30;69.50;;;;;;4980824;28;20038;-72
2020/12/08 01:40:05;;;;;;;4.13;3.40;;;7.30;69.40;;;;;;4981834;28;20037;-72
2020/12/08 01:42:30;;;;;;;4.22;3.72;;;7.20;69.40;;;;;;4981235;28;20034;-72
2020/12/08 01:44:56;;;;;;;3.83;3.42;;;7.20;69.40;;;;;;4978160;28;20489;-71
2020/12/08 01:47:21;;;;;;;4.85;3.72;;;7.20;69.40;;;;;;4982559;28;20046;-71
2020/12/08 01:49:48;;;;;;;4.00;3.40;;;7.20;69.50;;;;;;4978164;28;20121;-71
2020/12/08 01:52:17;;;;;;;4.28;3.78;;;7.10;69.40;;;;;;4984331;28;20041;-71
2020/12/08 01:54:45;;;;;;;3.70;3.20;;;7.10;69.50;;;;;;4985838;28;20583;-72
2020/12/08 01:57:11;;;;;;;3.83;3.45;;;7.10;69.50;;;;;;4979940;28;20093;-72
2020/12/08 01:59:36;;;;;;;3.83;3.30;;;7.00;69.50;;;;;;4982290;28;20039;-71
2020/12/08 02:02:03;;;;;;;3.60;3.05;;;7.10;69.60;;;;;;4980379;28;20433;-71
2020/12/08 02:04:29;;;;;;;7.20;4.95;;;7.00;69.50;;;;;;4982397;28;20042;-71
2020/12/08 02:06:54;;;;;;;3.40;3.03;;;7.00;69.50;;;;;;4965213;28;20172;-71
2020/12/08 02:09:20;;;;;;;3.58;3.25;;;7.10;69.50;;;;;;4983317;28;20042;-72
2020/12/08 02:11:45;;;;;;;3.70;3.33;;;6.90;69.40;;;;;;4980876;28;20053;-72
2020/12/08 02:14:11;;;;;;;3.42;3.08;;;6.90;69.50;;;;;;4981714;28;20069;-72
2020/12/08 02:16:36;;;;;;;5.05;3.58;;;6.90;69.50;;;;;;4984847;28;20081;-72
2020/12/08 02:19:03;;;;;;;3.83;3.35;;;6.90;69.50;;;;;;4983550;28;20095;-72
2020/12/08 02:21:31;;;;;;;3.75;3.10;;;6.80;69.50;;;;;;4984103;28;20027;-71
2020/12/08 02:23:57;;;;;;;2.95;2.53;;;6.80;69.60;;;;;;4985726;28;20061;-71
2020/12/08 02:26:22;;;;;;;4.43;3.33;;;6.70;69.70;;;;;;4983518;28;20673;-71
2020/12/08 02:28:48;;;;;;;4.10;3.58;;;6.70;69.70;;;;;;4980236;28;20045;-71
2020/12/08 02:31:13;;;;;;;3.45;3.03;;;6.70;69.80;;;;;;4985194;28;20050;-71
2020/12/08 02:33:39;;;;;;;4.00;3.20;;;6.70;69.90;;;;;;4979365;28;20039;-71
2020/12/08 02:36:04;;;;;;;3.50;3.17;;;6.70;69.90;;;;;;4983243;28;20030;-71
2020/12/08 02:38:30;;;;;;;3.45;3.15;;;6.70;70.00;;;;;;4984166;28;20095;-71
2020/12/08 02:40:56;;;;;;;3.72;2.88;;;6.70;70.00;;;;;;4981367;28;20470;-71
2020/12/08 02:43:22;;;;;;;3.63;3.03;;;6.70;70.10;;;;;;4975698;28;20567;-72
2020/12/08 02:45:48;;;;;;;3.42;3.13;;;6.70;70.10;;;;;;4982267;28;20038;-72
2020/12/08 02:48:15;;;;;;;4.10;3.63;;;6.70;70.20;;;;;;4976069;28;20497;-71
2020/12/08 02:50:40;;;;;;;4.72;3.00;;;6.70;70.30;;;;;;4983753;28;20035;-71
2020/12/08 02:53:06;;;;;;;4.07;3.28;;;6.70;70.40;;;;;;4982534;28;20041;-72
2020/12/08 02:55:31;;;;;;;3.88;3.50;;;6.70;70.40;;;;;;4981996;28;20030;-71
2020/12/08 02:57:57;;;;;;;3.90;3.40;;;6.80;70.40;;;;;;4980204;28;20109;-72
2020/12/08 03:00:23;;;;;;;3.90;2.97;;;6.80;71.00;;;;;;4979934;28;20077;-72
2020/12/08 03:02:48;;;;;;;4.30;3.70;;;6.80;70.50;;;;;;4985624;28;20580;-72
2020/12/08 03:05:14;;;;;;;4.15;3.63;;;6.80;70.50;;;;;;4991434;28;20037;-71
2020/12/08 03:07:39;;;;;;;4.25;3.63;;;6.80;70.50;;;;;;4987757;28;20039;-72
2020/12/08 03:10:08;;;;;;;3.58;3.25;;;6.80;70.50;;;;;;4984372;28;20051;-71
2020/12/08 03:12:37;;;;;;;3.60;3.15;;;6.80;70.50;;;;;;4976849;28;20074;-71
2020/12/08 03:15:07;;;;;;;4.18;3.60;;;6.90;70.60;;;;;;4982114;28;20034;-72
2020/12/08 03:17:33;;;;;;;4.07;3.63;;;6.90;70.60;;;;;;4985396;28;20026;-71
2020/12/08 03:19:58;;;;;;;3.35;2.80;;;6.90;70.60;;;;;;4983897;28;20041;-71
2020/12/08 03:22:24;;;;;;;3.00;2.70;;;6.90;70.50;;;;;;4986078;28;20117;-71
2020/12/08 03:24:50;;;;;;;4.15;3.67;;;7.00;70.60;;;;;;4983994;28;20038;-72
2020/12/08 03:27:17;;;;;;;3.90;3.28;;;7.00;70.60;;;;;;4982299;28;20030;-72
2020/12/08 03:29:42;;;;;;;4.65;3.95;;;7.00;70.70;;;;;;4986622;28;20521;-71
2020/12/08 03:32:08;;;;;;;4.30;3.78;;;7.00;70.60;;;;;;4985914;28;20073;-71
2020/12/08 03:34:33;;;;;;;4.18;3.72;;;7.10;70.70;;;;;;4984769;28;20034;-72
2020/12/08 03:36:59;;;;;;;3.80;3.35;;;7.10;70.70;;;;;;4987207;28;20023;-72
2020/12/08 03:39:25;;;;;;;4.32;3.67;;;7.10;70.60;;;;;;4984305;28;20042;-72
2020/12/08 03:41:50;;;;;;;4.07;3.50;;;7.10;70.60;;;;;;4982145;28;20035;-71
2020/12/08 03:44:16;;;;;;;4.28;3.33;;;7.20;70.60;;;;;;4982052;28;20432;-71
2020/12/08 03:46:41;;;;;;;4.30;3.42;;;7.20;70.50;;;;;;4983879;28;20102;-71
2020/12/08 03:49:07;;;;;;;3.45;3.15;;;7.20;70.50;;;;;;4983259;28;20069;-71
2020/12/08 03:51:32;;;;;;;3.63;3.10;;;7.20;70.50;;;;;;4984265;28;20022;-72
2020/12/08 03:53:58;;;;;;;4.22;3.83;;;7.20;70.50;;;;;;4983310;28;20076;-72
2020/12/08 03:56:23;;;;;;;4.28;3.55;;;7.30;70.50;;;;;;4986036;28;20046;-73
2020/12/08 03:58:49;;;;;;;3.75;3.00;;;7.30;70.50;;;;;;4980330;28;20402;-71
2020/12/08 04:01:17;;;;;;;4.10;3.47;;;7.30;70.50;;;;;;4983739;28;20030;-72
2020/12/08 04:03:45;;;;;;;4.25;3.72;;;7.30;70.50;;;;;;4982930;28;20037;-72
2020/12/08 04:06:14;;;;;;;4.45;3.58;;;7.30;70.50;;;;;;4986466;28;20015;-71
2020/12/08 04:08:43;;;;;;;3.88;3.20;;;7.30;70.50;;;;;;4980329;28;20038;-72
2020/12/08 04:11:09;;;;;;;3.55;2.75;;;7.40;70.60;;;;;;4981075;28;20113;-71
2020/12/08 04:13:35;;;;;;;4.00;3.55;;;7.40;70.60;;;;;;4979177;28;20122;-72
2020/12/08 04:16:01;;;;;;;3.53;2.80;;;7.40;70.60;;;;;;4986814;28;20545;-72
2020/12/08 04:18:27;;;;;;;3.72;3.30;;;7.40;70.60;;;;;;4984063;28;20066;-72
2020/12/08 04:20:53;;;;;;;3.75;3.20;;;7.30;70.60;;;;;;4986848;28;20112;-71
2020/12/08 04:23:19;;;;;;;4.28;3.67;;;7.40;70.60;;;;;;4985815;28;20114;-72
2020/12/08 04:25:47;;;;;;;4.28;3.38;;;7.40;70.60;;;;;;4985199;28;20228;-72
2020/12/08 04:28:13;;;;;;;3.70;3.40;;;7.40;70.70;;;;;;4983376;28;20030;-71
2020/12/08 04:30:39;;;;;;;4.40;3.67;;;7.40;70.60;;;;;;4988674;28;20046;-71
2020/12/08 04:33:06;;;;;;;4.00;3.60;;;7.50;70.70;;;;;;4989087;28;20041;-71
2020/12/08 04:35:31;;;;;;;4.03;3.47;;;7.50;70.60;;;;;;4987616;28;20041;-72
2020/12/08 04:37:57;;;;;;;4.80;3.70;;;7.50;70.60;;;;;;4986839;28;20509;-72
2020/12/08 04:40:24;;;;;;;3.78;3.35;;;7.50;70.50;;;;;;4984392;28;20041;-72
2020/12/08 04:42:57;;;;;;;4.22;3.58;;;7.40;70.40;;;;;;4974210;28;20042;-72
2020/12/08 04:45:22;;;;;;;4.18;3.47;;;7.50;70.40;;;;;;4980786;28;20524;-71
2020/12/08 04:47:49;;;;;;;3.92;3.53;;;7.50;70.40;;;;;;4982336;28;20054;-72
2020/12/08 04:50:18;;;;;;;4.18;3.20;;;7.50;70.50;;;;;;4978152;28;20046;-72
2020/12/08 04:52:45;;;;;;;3.95;3.47;;;7.50;70.50;;;;;;4985401;28;20405;-72
2020/12/08 04:55:11;;;;;;;3.75;3.15;;;7.60;70.50;;;;;;4982927;28;20037;-71
2020/12/08 04:57:40;;;;;;;3.50;3.15;;;7.50;70.40;;;;;;4982117;28;20034;-72
2020/12/08 05:00:10;;;;;;;3.97;3.58;;;7.50;70.40;;;;;;4983313;28;20042;-72
2020/12/08 05:03:05;;;;;;;3.95;3.55;;;7.60;70.40;;;;;;4982431;28;20035;-72
2020/12/08 05:05:38;;;;;;;3.45;3.15;;;7.60;70.50;;;;;;4966309;28;20034;-71
2020/12/08 05:08:11;;;;;;;3.40;3.10;;;7.60;70.30;;;;;;4983245;28;20054;-71
2020/12/08 05:10:37;;;;;;;4.22;3.63;;;7.60;70.30;;;;;;4980250;28;20026;-72
2020/12/08 05:13:05;;;;;;;4.18;3.17;;;7.50;70.20;;;;;;4984171;28;20563;-71
2020/12/08 05:15:31;;;;;;;4.60;3.92;;;7.60;70.20;;;;;;4982969;28;20030;-71
2020/12/08 05:18:10;;;;;;;3.60;3.03;;;7.60;70.30;;;;;;4982787;28;20031;-72
2020/12/08 05:20:39;;;;;;;4.78;3.58;;;7.50;70.20;;;;;;4985127;28;20096;-71
2020/12/08 05:23:05;;;;;;;4.15;3.60;;;7.60;70.20;;;;;;4986633;28;20513;-72
2020/12/08 05:25:31;;;;;;;3.40;3.03;;;7.50;70.10;;;;;;4987978;28;20034;-72
2020/12/08 05:27:59;;;;;;;3.92;3.40;;;7.50;70.10;;;;;;4977939;28;20041;-71
2020/12/08 05:30:25;;;;;;;3.80;3.08;;;7.50;70.10;;;;;;4980888;28;20056;-72
2020/12/08 05:32:51;;;;;;;3.60;3.22;;;7.70;70.20;;;;;;4980199;28;20506;-72
2020/12/08 05:35:22;;;;;;;5.13;4.00;;;7.50;70.10;;;;;;4979978;28;20043;-72
2020/12/08 05:37:51;;;;;;;6.68;4.78;;;7.40;70.10;;;;;;4982797;28;20026;-72
2020/12/08 05:40:25;;;;;;;5.05;3.97;;;7.40;70.10;;;;;;4983230;28;20150;-72
2020/12/08 05:42:53;;;;;;;4.50;3.60;;;7.40;70.10;;;;;;4977516;28;20034;-72
2020/12/08 05:45:21;;;;;;;4.82;3.95;;;7.40;70.10;;;;;;4978724;28;20436;-71
2020/12/08 05:47:53;;;;;;;4.65;3.95;;;7.40;70.20;;;;;;4981933;28;20081;-72
2020/12/08 05:50:20;;;;;;;4.15;3.50;;;7.40;70.20;;;;;;4979893;28;20038;-71
2020/12/08 05:52:47;;;;;;;4.18;3.42;;;7.40;70.20;;;;;;4982273;28;20078;-72
2020/12/08 05:55:20;;;;;;;5.13;4.00;;;7.50;70.20;;;;;;4981158;28;20413;-72
2020/12/08 05:57:46;;;;;;;4.00;3.55;;;7.40;70.30;;;;;;4979808;28;21657;-72
2020/12/08 06:00:29;;;;;;;4.28;3.60;;;7.40;70.30;;;;;;4984977;28;20543;-71
2020/12/08 06:03:07;;;;;;;5.90;4.85;;;7.40;70.50;;;;;;4976161;28;20043;-71
2020/12/08 06:05:33;;;;;;;4.35;3.95;;;7.40;70.40;;;;;;4984010;28;20560;-72
2020/12/08 06:07:59;;;;;;;3.80;3.33;;;7.40;70.50;;;;;;4985651;28;20125;-71
2020/12/08 06:10:25;;;;;;;5.55;4.15;;;7.40;70.50;;;;;;4982003;28;20039;-72
2020/12/08 06:12:59;;;;;;;4.90;3.95;;;7.40;70.60;;;;;;4975780;28;20440;-72
2020/12/08 06:15:26;;;;;;;4.78;4.20;;;7.40;70.80;;;;;;4982989;28;20497;-72
2020/12/08 06:17:53;;;;;;;4.10;3.67;;;7.50;70.70;;;;;;4984511;28;20029;-73
2020/12/08 06:20:20;;;;;;;4.47;3.70;;;7.50;70.70;;;;;;4983098;28;20042;-73
2020/12/08 06:22:59;;;;;;;4.28;3.63;;;7.50;70.70;;;;;;4984216;28;20038;-73
2020/12/08 06:25:25;;;;;;;4.60;4.07;;;7.50;70.90;;;;;;4980936;28;20057;-73
2020/12/08 06:28:02;;;;;;;4.13;3.30;;;7.50;70.70;;;;;;4975077;28;20093;-73
2020/12/08 06:30:28;;;;;;;4.55;3.60;;;7.60;70.80;;;;;;4981330;28;20034;-73
2020/12/08 06:32:53;;;;;;;4.10;3.28;;;7.60;70.70;;;;;;4984433;28;20042;-73
2020/12/08 06:35:19;;;;;;;4.03;3.63;;;7.60;70.70;;;;;;4984819;28;20034;-72
2020/12/08 06:37:51;;;;;;;4.05;3.50;;;7.60;70.70;;;;;;4987561;28;20097;-72
2020/12/08 06:40:18;;;;;;;3.95;3.58;;;7.70;70.80;;;;;;4985823;28;20038;-72
2020/12/08 06:42:47;;;;;;;3.28;2.83;;;7.70;70.70;;;;;;4983533;28;20073;-72
2020/12/08 06:45:15;;;;;;;3.63;3.15;;;7.60;70.60;;;;;;4985872;28;20034;-72
2020/12/08 06:47:42;;;;;;;3.40;3.08;;;7.70;70.70;;;;;;4985599;28;20069;-73
2020/12/08 06:50:27;;;;;;;4.60;3.83;;;7.70;70.60;;;;;;4984309;28;20117;-73
2020/12/08 06:52:58;;;;;;;4.50;4.07;;;7.70;70.70;;;;;;4982404;28;20536;-73
2020/12/08 06:55:24;;;;;;;3.92;3.50;;;7.70;70.50;;;;;;4987400;28;20393;-73
2020/12/08 06:57:50;;;;;;;4.13;3.38;;;7.70;70.50;;;;;;4981606;28;20030;-72
2020/12/08 07:00:16;;;;;;;4.38;3.45;;;7.70;70.50;;;;;;4980983;28;20045;-73
2020/12/08 07:02:48;;;;;;;4.80;3.90;;;7.70;70.50;;;;;;4983592;28;20041;-73
2020/12/08 07:05:26;;;;;;;3.83;3.35;;;7.70;70.50;;;;;;4985424;28;20037;-73
2020/12/08 07:07:52;;;;;;;4.18;3.20;;;7.70;70.50;;;;;;4977643;28;20038;-73
2020/12/08 07:10:19;;;;;;;4.80;3.53;;;7.80;70.60;;;;;;4984764;28;20051;-73
2020/12/08 07:12:49;;;;;;;5.75;3.78;;;7.80;70.50;;;;;;4983311;28;20121;-73
2020/12/08 07:15:23;;;;;;;3.85;3.33;;;7.80;70.60;;;;;;4987879;28;20125;-73
2020/12/08 07:17:56;;;;;;;3.75;3.35;;;7.70;70.50;;;;;;4982532;28;20035;-73
2020/12/08 07:20:22;;;;;;;4.13;3.65;;;7.80;70.60;;;;;;4984025;28;20117;-73
2020/12/08 07:22:48;;;;;;;4.05;3.35;;;7.80;70.60;;;;;;4985428;28;20030;-73
2020/12/08 07:25:15;;;;;;;4.00;3.60;;;7.80;70.60;;;;;;4985625;28;20077;-73
2020/12/08 07:27:46;;;;;;;3.97;3.58;;;7.80;70.60;;;;;;4980531;28;20073;-74
2020/12/08 07:30:13;;;;;;;4.40;3.67;;;7.80;70.60;;;;;;4987972;28;20073;-73
2020/12/08 07:32:40;;;;;;;3.58;3.20;;;7.80;70.60;;;;;;4983880;28;20034;-73
2020/12/08 07:35:06;;;;;;;4.40;4.00;;;7.80;70.50;;;;;;4985622;28;20517;-73
2020/12/08 07:37:37;;;;;;;3.53;2.92;;;7.90;70.60;;;;;;4986768;28;20540;-73
2020/12/08 07:40:07;;;;;;;3.30;2.95;;;7.80;70.60;;;;;;4986197;28;20042;-73
2020/12/08 07:42:32;;;;;;;5.07;3.85;;;7.90;70.60;;;;;;4986645;28;20255;-73
2020/12/08 07:44:58;;;;;;;4.50;3.63;;;7.90;71.10;;;;;;4984267;28;20050;-74
2020/12/08 07:47:24;;;;;;;4.45;3.80;;;7.80;70.50;;;;;;4986023;28;20081;-73
2020/12/08 07:49:49;;;;;;;4.93;3.35;;;7.90;70.60;;;;;;4977453;28;20041;-74
2020/12/08 07:52:18;;;;;;;4.45;3.42;;;7.90;70.60;;;;;;4983742;28;20045;-73
2020/12/08 07:54:44;;;;;;;4.22;3.63;;;7.90;70.60;;;;;;4984498;28;20061;-73
2020/12/08 07:57:10;;;;;;;3.65;3.35;;;7.90;70.60;;;;;;4980498;28;20034;-74
2020/12/08 07:59:36;;;;;;;3.80;3.40;;;7.90;70.60;;;;;;4985904;28;20043;-73
2020/12/08 08:02:02;;;;;;;4.38;3.80;;;7.90;70.60;;;;;;4986979;28;20603;-74
2020/12/08 08:04:27;;;;;;;4.20;3.75;;;7.90;70.60;;;;;;4983602;28;20173;-74
2020/12/08 08:06:53;;;;;;;4.18;3.40;;;8.00;70.80;;;;;;4983196;28;20037;-74
2020/12/08 08:09:18;;;;;;;6.22;4.35;;;8.00;70.80;;;;;;4984907;28;20069;-74
2020/12/08 08:11:44;;;;;;;4.13;3.60;;;8.00;70.80;;;;;;4982227;28;20104;-74
2020/12/08 08:14:09;;;;;;;4.55;4.05;;;8.00;70.80;;;;;;4981107;28;20489;-73
2020/12/08 08:16:35;;;;;;;4.47;4.07;;;8.00;70.80;;;;;;4984106;28;20041;-73
2020/12/08 08:19:02;;;;;;;4.40;3.95;;;8.00;70.70;;;;;;4979683;28;20103;-73
2020/12/08 08:21:27;;;;;;;5.20;4.28;;;8.10;70.60;;;;;;4980053;28;20114;-73
2020/12/08 08:23:53;;;;;;;4.13;3.65;;;8.00;70.50;;;;;;4987131;28;20101;-73
2020/12/08 08:26:19;;;;;;;5.28;3.83;;;8.00;70.30;;;;;;4986174;28;20023;-73
2020/12/08 08:28:44;;;;;;;4.38;3.85;;;8.00;70.20;;;;;;4978748;28;20085;-73
2020/12/08 08:31:10;;;;;;;4.57;4.00;;;8.00;70.10;;;;;;4985289;28;20030;-73
2020/12/08 08:33:35;;;;;;;4.47;3.95;;;8.00;70.00;;;;;;4981345;28;20464;-73
2020/12/08 08:36:01;;;;;;;4.63;3.83;;;8.10;69.90;;;;;;4983475;28;20033;-73
2020/12/08 08:38:26;;;;;;;4.28;3.45;;;8.00;69.80;;;;;;4985641;28;20118;-73
2020/12/08 08:40:54;;;;;;;4.22;3.83;;;7.90;69.70;;;;;;4983624;28;20506;-72
2020/12/08 08:43:19;;;;;;;3.88;3.33;;;7.90;69.70;;;;;;4982605;28;20060;-73
2020/12/08 08:45:45;;;;;;;4.20;3.75;;;7.80;69.60;;;;;;4985890;28;20517;-72
2020/12/08 08:48:10;;;;;;;4.47;4.07;;;7.90;69.80;;;;;;4983182;28;20109;-73
2020/12/08 08:50:36;;;;;;;5.43;4.28;;;7.80;69.80;;;;;;4983339;28;20653;-72
2020/12/08 08:53:01;;;;;;;5.28;4.07;;;7.80;69.90;;;;;;4984028;28;20034;-73
2020/12/08 08:55:27;;;;;;;4.72;3.88;;;7.80;69.90;;;;;;4987868;28;20441;-73
2020/12/08 08:57:53;;;;;;;4.10;3.70;;;7.70;70.00;;;;;;4983011;28;20524;-73
2020/12/08 09:00:19;;;;;;;3.80;3.47;;;7.80;70.20;;;;;;4982439;28;20038;-73
2020/12/08 09:02:44;;;;;;;3.92;3.50;;;7.70;70.20;;;;;;4984385;28;20035;-73
2020/12/08 09:05:10;;;;;;;5.78;4.50;;;7.70;70.30;;;;;;4983773;28;20052;-73
2020/12/08 09:07:36;;;;;;;4.28;3.60;;;7.70;70.30;;;;;;4979502;28;20027;-73
2020/12/08 09:10:02;;;;;;;4.47;3.83;;;7.60;70.30;;;;;;4980174;28;20041;-74
2020/12/08 09:12:27;;;;;;;4.72;4.25;;;7.70;70.50;;;;;;4979899;28;20411;-74
2020/12/08 09:14:57;;;;;;;4.43;3.55;;;7.70;70.50;;;;;;4979403;28;20041;-74
2020/12/08 09:17:23;;;;;;;4.78;3.80;;;7.70;70.60;;;;;;4964241;28;20494;-74
2020/12/08 09:19:48;;;;;;;2.97;2.67;;;7.70;70.70;;;;;;4980303;28;20049;-74
2020/12/08 09:22:14;;;;;;;3.10;2.75;;;7.70;70.70;;;;;;4982725;28;20037;-73
2020/12/08 09:24:39;;;;;;;3.88;3.50;;;7.80;70.80;;;;;;4978036;28;20042;-73
2020/12/08 09:27:06;;;;;;;3.63;2.95;;;7.80;71.30;;;;;;4983260;28;20413;-71
2020/12/08 09:29:35;;;;;;;3.10;2.80;;;7.80;70.70;;;;;;4980954;28;20041;-74
2020/12/08 09:32:02;;;;;;;3.50;3.13;;;7.80;70.60;;;;;;4977079;28;20121;-74
2020/12/08 09:34:28;;;;;;;3.47;2.95;;;7.90;70.60;;;;;;4980847;28;20045;-73
2020/12/08 09:36:55;;;;;;;3.80;3.30;;;7.80;70.40;;;;;;4983885;28;20030;-74
2020/12/08 09:39:21;;;;;;;4.03;3.40;;;7.80;70.90;;;;;;4982965;28;20093;-74
2020/12/08 09:41:47;;;;;;;3.20;2.90;;;7.80;70.30;;;;;;4978361;28;20108;-74
2020/12/08 09:44:13;;;;;;;3.78;3.10;;;7.80;70.30;;;;;;4979769;28;20027;-74
2020/12/08 09:46:39;;;;;;;4.13;3.08;;;7.80;70.30;;;;;;4981965;28;20034;-74
2020/12/08 09:49:05;;;;;;;3.40;2.80;;;7.80;70.20;;;;;;4980947;28;20287;-74
2020/12/08 09:51:31;;;;;;;4.03;3.63;;;7.80;70.20;;;;;;4974070;28;20034;-74
2020/12/08 09:53:57;;;;;;;3.80;3.47;;;7.80;70.30;;;;;;4985670;28;20572;-73
2020/12/08 09:56:23;;;;;;;3.58;3.03;;;7.80;70.20;;;;;;4982753;28;20307;-73
2020/12/08 09:58:49;;;;;;;4.55;3.70;;;7.80;70.30;;;;;;4981270;28;20533;-72
2020/12/08 10:01:15;;;;;;;4.40;3.72;;;7.80;70.30;;;;;;4983495;28;20027;-73
2020/12/08 10:03:40;;;;;;;3.67;3.13;;;7.80;70.40;;;;;;4978880;28;20662;-73
2020/12/08 10:06:07;;;;;;;4.00;3.60;;;7.90;70.50;;;;;;4982929;28;20059;-73
2020/12/08 10:08:32;;;;;;;4.40;3.92;;;7.80;70.60;;;;;;4988324;28;20035;-74
2020/12/08 10:10:58;;;;;;;3.90;3.50;;;7.90;70.60;;;;;;4987139;28;20081;-73
2020/12/08 10:13:23;;;;;;;4.40;3.72;;;7.80;70.60;;;;;;4987433;28;20413;-73
2020/12/08 10:15:49;;;;;;;4.45;3.47;;;7.80;70.60;;;;;;4988653;28;20041;-73
2020/12/08 10:18:14;;;;;;;4.90;3.95;;;7.90;70.70;;;;;;4982520;28;20086;-73
2020/12/08 10:20:40;;;;;;;4.13;3.53;;;7.90;70.70;;;;;;4990082;28;20039;-74
2020/12/08 10:23:06;;;;;;;4.45;3.90;;;7.90;70.80;;;;;;4984057;28;20534;-73
2020/12/08 10:25:33;;;;;;;3.70;3.40;;;8.00;70.90;;;;;;4972267;28;20505;-76
2020/12/08 10:27:59;;;;;;;3.85;3.33;;;7.90;70.80;;;;;;4987111;28;20102;-74
2020/12/08 10:30:25;;;;;;;4.97;4.03;;;8.00;70.90;;;;;;4985775;28;20149;-74
2020/12/08 10:32:50;;;;;;;4.63;3.78;;;8.10;71.00;;;;;;4987983;28;20042;-75
2020/12/08 10:35:16;;;;;;;4.20;3.60;;;8.10;71.00;;;;;;4966647;28;20034;-75
2020/12/08 10:37:41;;;;;;;4.82;4.00;;;8.10;70.90;;;;;;4985812;28;20040;-74
2020/12/08 10:40:07;;;;;;;4.60;4.10;;;8.10;70.90;;;;;;4988095;28;20057;-75
2020/12/08 10:42:32;;;;;;;4.15;3.53;;;8.20;71.00;;;;;;4978511;28;20406;-73
2020/12/08 10:44:58;;;;;;;3.67;3.30;;;8.20;70.90;;;;;;4976172;28;20046;-73
2020/12/08 10:47:23;;;;;;;3.83;3.45;;;8.30;70.90;;;;;;4985047;28;20030;-74
2020/12/08 10:49:49;;;;;;;4.72;3.33;;;8.30;70.90;;;;;;4981839;28;20061;-74
2020/12/08 10:52:14;;;;;;;4.47;3.65;;;8.30;70.80;;;;;;4985031;28;20041;-73
2020/12/08 10:54:40;;;;;;;4.68;3.53;;;8.40;70.90;;;;;;4985036;28;20441;-74
2020/12/08 10:57:05;;;;;;;4.85;4.38;;;8.40;70.90;;;;;;4986216;28;20428;-73
2020/12/08 10:59:31;;;;;;;4.97;4.10;;;8.50;70.90;;;;;;4978215;28;20129;-74
2020/12/08 11:01:56;;;;;;;4.63;3.95;;;8.50;70.80;;;;;;4985160;28;20035;-73
2020/12/08 11:04:22;;;;;;;4.32;3.38;;;8.50;70.70;;;;;;4982618;28;20085;-74
2020/12/08 11:06:47;;;;;;;4.40;3.42;;;8.60;70.70;;;;;;4982869;28;20022;-74
2020/12/08 11:09:13;;;;;;;4.10;3.70;;;8.60;70.60;;;;;;4986438;28;20038;-74
2020/12/08 11:11:39;;;;;;;4.20;3.70;;;8.60;70.60;;;;;;4980454;28;20441;-73
2020/12/08 11:14:04;;;;;;;4.63;4.18;;;8.70;70.70;;;;;;4979924;28;20037;-72
2020/12/08 11:16:30;;;;;;;4.60;3.80;;;8.70;70.70;;;;;;4981429;28;20023;-73
2020/12/08 11:18:56;;;;;;;4.60;3.92;;;8.70;70.70;;;;;;4975077;28;20057;-73
2020/12/08 11:21:26;;;;;;;4.03;3.60;;;8.70;70.70;;;;;;4980404;28;20034;-74
2020/12/08 11:23:51;;;;;;;4.28;3.22;;;8.80;71.20;;;;;;4983345;28;20073;-73
2020/12/08 11:26:17;;;;;;;4.45;3.85;;;8.80;70.70;;;;;;4983772;28;20046;-73
2020/12/08 11:28:43;;;;;;;4.55;3.85;;;8.90;70.70;;;;;;4982127;28;20406;-73
2020/12/08 11:31:08;;;;;;;4.53;4.03;;;8.90;70.70;;;;;;4979876;28;20054;-73
2020/12/08 11:33:34;;;;;;;4.32;3.85;;;8.90;70.70;;;;;;4980571;28;20041;-73
2020/12/08 11:36:00;;;;;;;5.38;4.65;;;8.90;70.70;;;;;;4984444;28;20077;-73
2020/12/08 11:38:26;;;;;;;4.47;3.85;;;9.00;70.60;;;;;;4979255;28;20035;-73
2020/12/08 11:40:51;;;;;;;4.53;4.13;;;9.00;70.40;;;;;;4975910;28;20490;-73
2020/12/08 11:43:17;;;;;;;4.60;3.97;;;9.00;70.30;;;;;;4981564;28;20030;-75
2020/12/08 11:45:43;;;;;;;5.88;5.28;;;9.00;70.30;;;;;;4964147;28;20026;-74
2020/12/08 11:48:08;;;;;;;5.88;5.22;;;9.10;70.30;;;;;;4977710;28;20432;-73
2020/12/08 11:50:34;;;;;;;16.85;10.65;;;9.10;70.10;;;;;;4979176;28;20038;-74
2020/12/08 11:53:00;;;;;;;12.35;7.72;;;9.10;70.20;;;;;;4982717;28;20073;-74
2020/12/08 11:55:25;;;;;;;8.40;5.50;;;9.10;70.20;;;;;;4985305;28;20046;-74
2020/12/08 11:57:51;;;;;;;7.47;5.72;;;9.20;70.40;;;;;;4977273;28;20519;-76
2020/12/08 12:00:16;;;;;;;4.85;4.20;;;9.10;70.40;;;;;;4979989;28;20591;-75
2020/12/08 12:02:42;;;;;;;6.57;5.05;;;9.20;70.50;;;;;;4979146;28;20065;-74
2020/12/08 12:05:07;;;;;;;5.63;4.68;;;9.20;70.40;;;;;;4981223;28;20105;-74
2020/12/08 12:07:33;;;;;;;4.97;4.40;;;9.20;70.50;;;;;;4979605;28;20085;-73
2020/12/08 12:09:59;;;;;;;5.35;4.75;;;9.30;70.60;;;;;;4988458;28;20492;-74
2020/12/08 12:12:25;;;;;;;5.10;4.57;;;9.30;70.70;;;;;;4987263;28;20022;-75
2020/12/08 12:14:50;;;;;;;5.25;4.53;;;9.40;70.60;;;;;;4977339;28;20041;-74
2020/12/08 12:17:16;;;;;;;5.68;4.88;;;9.40;70.60;;;;;;4984619;28;20030;-74
2020/12/08 12:19:42;;;;;;;4.90;4.40;;;9.50;70.60;;;;;;4972303;28;20042;-74
2020/12/08 12:22:07;;;;;;;5.30;4.50;;;9.50;70.40;;;;;;4984153;28;20490;-74
2020/12/08 12:24:33;;;;;;;4.25;3.72;;;9.50;70.30;;;;;;4985508;28;20030;-74
2020/12/08 12:26:59;;;;;;;4.80;4.30;;;9.50;70.10;;;;;;4977881;28;20403;-74
2020/12/08 12:29:24;;;;;;;4.35;3.65;;;9.60;70.00;;;;;;4976024;28;20045;-74
2020/12/08 12:31:50;;;;;;;4.50;3.75;;;9.60;69.80;;;;;;4981063;28;20077;-73
2020/12/08 12:34:18;;;;;;;4.30;3.55;;;9.60;69.70;;;;;;4981469;28;20048;-74
2020/12/08 12:36:47;;;;;;;5.13;3.95;;;9.50;69.70;;;;;;4984153;28;20081;-74
2020/12/08 12:39:13;;;;;;;4.47;4.07;;;9.60;69.70;;;;;;4984576;28;20038;-73
2020/12/08 12:41:38;;;;;;;3.92;3.22;;;9.50;69.80;;;;;;4982685;28;20038;-73
2020/12/08 12:44:04;;;;;;;4.53;4.03;;;9.50;69.90;;;;;;4962786;28;20034;-73
2020/12/08 12:46:29;;;;;;;3.97;3.58;;;9.50;69.80;;;;;;4983823;28;20497;-74
2020/12/08 12:48:56;;;;;;;4.05;3.65;;;9.60;69.80;;;;;;4978218;28;20117;-72
2020/12/08 12:51:25;;;;;;;3.70;3.30;;;9.60;69.80;;;;;;4982267;28;20109;-73
2020/12/08 12:53:51;;;;;;;4.05;3.65;;;9.60;69.80;;;;;;4988365;28;20118;-74